Time;durP1;ratioP1;P1;durP2;ratioP2;P2;SDS_P1;SDS_P2;PMS_P1;PMS_P2;Temp;Humidity;BMP_temperature;BMP_pressure;BME280_temperature;BME280_humidity;BME280_pressure;Samples;Min_cycle;Max_cycle;Signal;HPM_P1;HPM_P2
2020/12/16 00:02:23;;;;;;;53.20;22.43;;;2.70;99.90;;;;;;4364079;32;20156;-75
2020/12/16 00:04:50;;;;;;;47.77;21.23;;;2.70;99.90;;;;;;4364124;33;20136;-74
2020/12/16 00:07:17;;;;;;;50.60;22.40;;;2.60;99.90;;;;;;4364081;33;20141;-74
2020/12/16 00:09:44;;;;;;;45.60;21.33;;;2.60;99.90;;;;;;4364007;33;20196;-74
2020/12/16 00:12:10;;;;;;;49.27;21.83;;;2.60;99.90;;;;;;4365011;33;20191;-74
2020/12/16 00:14:37;;;;;;;47.00;21.73;;;2.70;99.90;;;;;;4366144;33;20406;-75
2020/12/16 00:17:04;;;;;;;48.17;21.90;;;2.70;99.90;;;;;;4366934;32;20148;-74
2020/12/16 00:19:31;;;;;;;52.73;22.43;;;2.70;99.90;;;;;;4366987;32;20220;-74
2020/12/16 00:22:00;;;;;;;50.63;21.63;;;2.70;99.90;;;;;;4366700;32;20486;-74
2020/12/16 00:24:27;;;;;;;49.33;20.97;;;2.70;99.90;;;;;;4367009;32;20231;-74
2020/12/16 00:26:53;;;;;;;50.57;21.47;;;2.70;99.90;;;;;;4366885;32;20158;-74
2020/12/16 00:29:20;;;;;;;50.87;21.60;;;2.70;99.90;;;;;;4367253;32;20136;-74
2020/12/16 00:31:46;;;;;;;45.87;20.77;;;2.70;99.90;;;;;;4366935;32;20515;-74
2020/12/16 00:34:13;;;;;;;47.77;21.47;;;2.80;99.90;;;;;;4366801;32;20141;-74
2020/12/16 00:36:41;;;;;;;48.90;20.83;;;2.80;99.90;;;;;;4368485;32;20175;-74
2020/12/16 00:39:09;;;;;;;48.77;21.23;;;2.70;99.90;;;;;;4368139;32;20156;-74
2020/12/16 00:41:36;;;;;;;52.67;22.47;;;2.70;99.90;;;;;;4366547;32;20206;-74
2020/12/16 00:44:04;;;;;;;49.63;21.43;;;2.70;99.90;;;;;;4367197;32;20187;-74
2020/12/16 00:46:33;;;;;;;50.17;21.43;;;2.70;99.90;;;;;;4366692;32;20140;-74
2020/12/16 00:48:59;;;;;;;47.00;20.77;;;2.80;99.90;;;;;;4366471;32;20160;-74
2020/12/16 00:51:25;;;;;;;49.13;20.67;;;2.80;99.90;;;;;;4366639;32;20502;-74
2020/12/16 00:53:52;;;;;;;43.97;20.33;;;2.70;99.90;;;;;;4367687;32;20164;-74
2020/12/16 00:56:18;;;;;;;46.93;20.27;;;2.70;99.90;;;;;;4367969;32;20164;-74
2020/12/16 00:58:45;;;;;;;47.73;20.77;;;2.70;99.90;;;;;;4370268;32;20160;-74
2020/12/16 01:01:12;;;;;;;42.83;20.13;;;2.80;99.90;;;;;;4367837;32;20166;-74
2020/12/16 01:03:38;;;;;;;47.67;19.83;;;2.70;99.90;;;;;;4375487;32;20159;-74
2020/12/16 01:06:04;;;;;;;46.20;20.20;;;2.80;99.90;;;;;;4368938;32;20494;-75
2020/12/16 01:08:31;;;;;;;44.17;19.13;;;2.80;99.90;;;;;;4379832;32;20141;-74
2020/12/16 01:10:58;;;;;;;49.10;21.57;;;2.80;99.90;;;;;;4371461;32;20167;-74
2020/12/16 01:13:25;;;;;;;46.67;20.37;;;2.80;99.90;;;;;;4380706;32;20164;-74
2020/12/16 01:15:51;;;;;;;44.27;20.10;;;2.90;99.90;;;;;;4371668;32;20508;-74
2020/12/16 01:18:17;;;;;;;46.37;20.67;;;2.80;99.90;;;;;;4380526;32;20152;-74
2020/12/16 01:20:44;;;;;;;47.37;20.50;;;2.80;99.90;;;;;;4377039;32;20376;-74
2020/12/16 01:23:10;;;;;;;45.30;20.20;;;2.90;99.90;;;;;;4372355;32;20149;-74
2020/12/16 01:25:37;;;;;;;43.33;19.43;;;2.80;99.90;;;;;;4381990;32;20258;-73
2020/12/16 01:28:03;;;;;;;43.53;19.80;;;2.80;99.90;;;;;;4379199;32;20148;-73
2020/12/16 01:30:30;;;;;;;46.13;20.50;;;2.90;99.90;;;;;;4365901;32;20149;-74
2020/12/16 01:32:57;;;;;;;43.40;20.27;;;2.70;99.90;;;;;;4370905;32;20217;-73
2020/12/16 01:35:25;;;;;;;43.43;19.83;;;2.70;99.90;;;;;;4374327;32;20200;-73
2020/12/16 01:37:54;;;;;;;44.73;20.27;;;2.90;99.90;;;;;;4376459;32;20200;-73
2020/12/16 01:40:22;;;;;;;47.10;19.73;;;2.90;99.90;;;;;;4378958;32;20363;-73
2020/12/16 01:42:48;;;;;;;43.70;19.67;;;2.90;99.90;;;;;;4370374;32;20144;-73
2020/12/16 01:45:18;;;;;;;47.27;20.67;;;2.80;99.90;;;;;;4382077;32;20190;-73
2020/12/16 01:47:45;;;;;;;46.23;20.23;;;2.80;99.90;;;;;;4370597;32;20190;-73
2020/12/16 01:50:12;;;;;;;41.90;19.07;;;2.90;99.90;;;;;;4378400;32;20202;-73
2020/12/16 01:52:40;;;;;;;44.47;20.13;;;2.90;99.90;;;;;;4377062;32;20201;-73
2020/12/16 01:55:09;;;;;;;45.23;20.20;;;2.90;99.90;;;;;;4371737;32;20167;-73
2020/12/16 01:57:38;;;;;;;44.13;19.93;;;2.90;99.90;;;;;;4370789;32;20254;-73
2020/12/16 02:00:09;;;;;;;44.73;19.57;;;2.90;99.90;;;;;;4365186;33;20228;-73
2020/12/16 02:02:50;;;;;;;50.07;20.47;;;2.80;99.90;;;;;;4368337;32;20175;-73
2020/12/16 02:05:19;;;;;;;45.53;19.93;;;2.80;99.90;;;;;;4373258;32;20195;-73
2020/12/16 02:07:46;;;;;;;45.07;19.40;;;2.80;99.90;;;;;;4376706;32;20195;-73
2020/12/16 02:10:13;;;;;;;46.33;20.43;;;2.70;99.90;;;;;;4380893;32;20179;-73
2020/12/16 02:12:40;;;;;;;43.87;20.03;;;2.70;99.90;;;;;;4368601;32;20482;-73
2020/12/16 02:15:08;;;;;;;46.93;19.77;;;2.70;99.90;;;;;;4379992;32;20186;-73
2020/12/16 02:17:35;;;;;;;43.17;20.27;;;2.70;99.90;;;;;;4372339;32;20218;-73
2020/12/16 02:20:07;;;;;;;48.97;21.03;;;2.70;99.90;;;;;;4376933;32;20183;-72
2020/12/16 02:22:36;;;;;;;43.70;19.40;;;2.60;99.90;;;;;;4367753;32;20160;-73
2020/12/16 02:25:12;;;;;;;44.00;18.90;;;2.60;99.90;;;;;;4374197;32;20164;-73
2020/12/16 02:27:40;;;;;;;43.77;19.53;;;2.60;99.90;;;;;;4374893;32;20156;-73
2020/12/16 02:30:10;;;;;;;45.00;20.07;;;2.60;99.90;;;;;;4368220;32;20148;-73
2020/12/16 02:32:38;;;;;;;41.73;19.73;;;2.60;99.90;;;;;;4367836;32;20159;-73
2020/12/16 02:35:07;;;;;;;44.03;19.60;;;2.60;99.90;;;;;;4374712;32;20397;-73
2020/12/16 02:37:34;;;;;;;51.20;20.40;;;2.70;99.90;;;;;;4373260;32;20143;-73
2020/12/16 02:40:01;;;;;;;49.47;20.60;;;2.70;99.90;;;;;;4379914;32;20209;-73
2020/12/16 02:42:28;;;;;;;46.20;19.83;;;2.60;99.90;;;;;;4367210;32;20209;-73
2020/12/16 02:44:57;;;;;;;48.03;20.90;;;2.50;99.90;;;;;;4365853;32;20294;-72
2020/12/16 02:47:24;;;;;;;46.37;20.17;;;2.40;99.90;;;;;;4371645;32;20398;-73
2020/12/16 02:49:51;;;;;;;46.87;20.40;;;2.40;99.90;;;;;;4376140;32;20439;-73
2020/12/16 02:52:17;;;;;;;46.90;20.27;;;2.50;99.90;;;;;;4379993;32;20151;-73
2020/12/16 02:54:43;;;;;;;44.03;19.40;;;2.50;99.90;;;;;;4369892;32;20211;-73
2020/12/16 02:57:10;;;;;;;48.23;20.33;;;2.60;99.90;;;;;;4379348;32;20219;-73
2020/12/16 02:59:36;;;;;;;47.20;20.27;;;2.60;99.90;;;;;;4365902;32;20549;-73
2020/12/16 03:02:03;;;;;;;44.00;19.70;;;2.40;99.90;;;;;;4378065;32;20164;-73
2020/12/16 03:04:30;;;;;;;46.03;19.90;;;2.50;99.90;;;;;;4377854;32;20173;-73
2020/12/16 03:06:57;;;;;;;46.70;20.63;;;2.60;99.90;;;;;;4378121;32;20202;-73
2020/12/16 03:09:26;;;;;;;46.97;20.10;;;2.60;99.90;;;;;;4377850;32;20445;-73
2020/12/16 03:11:55;;;;;;;45.97;20.00;;;2.50;99.90;;;;;;4377899;32;20377;-73
2020/12/16 03:14:22;;;;;;;47.67;20.63;;;2.50;99.90;;;;;;4379618;32;20159;-73
2020/12/16 03:16:49;;;;;;;42.93;20.40;;;2.50;99.90;;;;;;4380891;32;20513;-73
2020/12/16 03:19:16;;;;;;;49.33;20.33;;;2.40;99.90;;;;;;4379484;32;20225;-73
2020/12/16 03:21:43;;;;;;;48.53;21.37;;;2.40;99.90;;;;;;4381432;32;20463;-73
2020/12/16 03:24:24;;;;;;;49.87;19.73;;;2.30;99.90;;;;;;4379896;32;20167;-73
2020/12/16 03:26:51;;;;;;;46.33;20.43;;;2.30;99.90;;;;;;4380865;32;20207;-73
2020/12/16 03:29:17;;;;;;;46.20;20.03;;;2.30;99.90;;;;;;4379354;32;20144;-73
2020/12/16 03:31:44;;;;;;;43.40;20.60;;;2.40;99.90;;;;;;4381111;32;20140;-73
2020/12/16 03:34:10;;;;;;;48.93;20.87;;;2.40;99.90;;;;;;4380833;32;20152;-73
2020/12/16 03:36:37;;;;;;;45.97;20.37;;;2.30;99.90;;;;;;4379382;32;20155;-73
2020/12/16 03:39:04;;;;;;;49.73;20.30;;;2.30;99.90;;;;;;4379246;32;20144;-73
2020/12/16 03:41:32;;;;;;;45.37;19.80;;;2.40;99.90;;;;;;4379275;32;20212;-73
2020/12/16 03:43:58;;;;;;;46.17;19.87;;;2.30;99.90;;;;;;4380618;32;20195;-73
2020/12/16 03:46:25;;;;;;;46.07;20.37;;;2.30;99.90;;;;;;4380690;32;20156;-73
2020/12/16 03:48:51;;;;;;;45.17;21.03;;;2.30;99.90;;;;;;4378669;32;20216;-73
2020/12/16 03:51:18;;;;;;;50.50;21.30;;;2.40;99.90;;;;;;4380591;32;20144;-74
2020/12/16 03:53:45;;;;;;;46.63;21.07;;;2.40;99.90;;;;;;4379255;32;20140;-74
2020/12/16 03:56:15;;;;;;;44.47;20.53;;;2.40;99.90;;;;;;4379106;32;20195;-73
2020/12/16 03:58:46;;;;;;;50.80;21.43;;;2.30;99.90;;;;;;4379106;32;20501;-73
2020/12/16 04:01:16;;;;;;;49.83;21.90;;;2.30;99.90;;;;;;4379077;32;20174;-73
2020/12/16 04:03:43;;;;;;;49.80;21.77;;;2.30;99.90;;;;;;4379058;32;20149;-73
2020/12/16 04:06:10;;;;;;;48.20;20.87;;;2.20;99.90;;;;;;4379320;32;20200;-73
2020/12/16 04:08:38;;;;;;;50.97;21.17;;;2.20;99.90;;;;;;4379770;32;20162;-73
2020/12/16 04:11:16;;;;;;;51.60;20.90;;;2.30;99.90;;;;;;4378898;32;20155;-73
2020/12/16 04:13:43;;;;;;;48.97;21.73;;;2.20;99.90;;;;;;4379886;32;20160;-73
2020/12/16 04:16:27;;;;;;;47.27;20.73;;;2.30;99.90;;;;;;4379284;32;20226;-73
2020/12/16 04:18:54;;;;;;;49.17;20.97;;;2.30;99.90;;;;;;4379163;32;20144;-73
2020/12/16 04:21:21;;;;;;;46.00;20.60;;;2.30;99.90;;;;;;4378888;32;20144;-73
2020/12/16 04:23:47;;;;;;;47.77;20.40;;;2.40;99.90;;;;;;4379888;32;20140;-73
2020/12/16 04:26:14;;;;;;;49.40;21.10;;;2.40;99.90;;;;;;4378315;32;20140;-73
2020/12/16 04:28:40;;;;;;;49.87;21.83;;;2.40;99.90;;;;;;4378876;32;20199;-73
2020/12/16 04:31:10;;;;;;;50.63;21.33;;;2.20;99.90;;;;;;4380340;32;20135;-73
2020/12/16 04:33:37;;;;;;;50.80;21.60;;;2.20;99.90;;;;;;4378923;32;20179;-73
2020/12/16 04:36:03;;;;;;;50.37;20.80;;;2.30;99.90;;;;;;4378841;32;20509;-73
2020/12/16 04:38:30;;;;;;;49.47;21.63;;;2.20;99.90;;;;;;4380296;32;20132;-73
2020/12/16 04:40:57;;;;;;;51.27;22.67;;;2.30;99.90;;;;;;4378917;32;20135;-73
2020/12/16 04:43:24;;;;;;;50.47;21.77;;;2.40;99.90;;;;;;4380255;32;20186;-73
2020/12/16 04:45:51;;;;;;;50.90;22.40;;;2.40;99.90;;;;;;4380398;32;20144;-73
2020/12/16 04:48:18;;;;;;;53.20;21.43;;;2.40;99.90;;;;;;4380210;32;20163;-73
2020/12/16 04:50:46;;;;;;;49.70;22.53;;;2.30;99.90;;;;;;4380433;32;20216;-73
2020/12/16 04:53:15;;;;;;;51.27;22.67;;;2.30;99.90;;;;;;4380171;32;20202;-72
2020/12/16 04:55:42;;;;;;;50.40;22.17;;;2.30;99.90;;;;;;4379603;32;20159;-72
2020/12/16 04:58:09;;;;;;;53.23;22.17;;;2.40;99.90;;;;;;4378744;32;20200;-73
2020/12/16 05:00:36;;;;;;;50.23;22.40;;;2.40;99.90;;;;;;4380642;32;20234;-73
2020/12/16 05:03:05;;;;;;;50.13;22.40;;;2.40;99.90;;;;;;4382829;32;20199;-73
2020/12/16 05:05:32;;;;;;;50.10;21.83;;;2.50;99.90;;;;;;4382388;32;20190;-73
2020/12/16 05:08:19;;;;;;;50.43;21.90;;;2.50;99.90;;;;;;4382276;32;20147;-73
2020/12/16 05:10:48;;;;;;;47.43;20.83;;;2.50;99.90;;;;;;4382844;32;20171;-73
2020/12/16 05:13:19;;;;;;;49.33;22.23;;;2.50;99.90;;;;;;4382811;32;20140;-73
2020/12/16 05:15:49;;;;;;;50.83;21.70;;;2.50;99.90;;;;;;4380978;32;20229;-73
2020/12/16 05:18:16;;;;;;;45.00;20.33;;;2.60;99.90;;;;;;4381200;32;20166;-72
2020/12/16 05:21:02;;;;;;;48.13;21.60;;;2.60;99.90;;;;;;4382839;32;20291;-72
2020/12/16 05:23:35;;;;;;;49.03;21.33;;;2.60;99.90;;;;;;4382652;32;20500;-72
2020/12/16 05:26:06;;;;;;;50.27;21.60;;;2.50;99.90;;;;;;4382830;32;20160;-73
2020/12/16 05:28:45;;;;;;;48.20;21.70;;;2.60;99.90;;;;;;4381106;32;20166;-73
2020/12/16 05:31:13;;;;;;;47.93;21.40;;;2.60;99.90;;;;;;4382309;32;20136;-73
2020/12/16 05:33:48;;;;;;;49.83;21.17;;;2.70;99.90;;;;;;4381038;32;20148;-73
2020/12/16 05:36:29;;;;;;;48.90;22.10;;;2.50;99.90;;;;;;4382465;32;20351;-73
2020/12/16 05:38:57;;;;;;;50.93;21.97;;;2.40;99.90;;;;;;4381351;32;20546;-73
2020/12/16 05:41:32;;;;;;;50.87;21.60;;;2.30;99.90;;;;;;4382404;32;20190;-73
2020/12/16 05:44:21;;;;;;;49.77;22.57;;;2.30;99.90;;;;;;4381569;32;20185;-73
2020/12/16 05:46:50;;;;;;;44.80;20.67;;;2.40;99.90;;;;;;4380863;32;20444;-72
2020/12/16 05:49:24;;;;;;;48.73;20.87;;;2.40;99.90;;;;;;4381340;32;20384;-72
2020/12/16 05:52:06;;;;;;;47.60;21.50;;;2.40;99.90;;;;;;4382212;32;20536;-73
2020/12/16 05:54:37;;;;;;;47.20;21.20;;;2.30;99.90;;;;;;4380767;32;20148;-73
2020/12/16 05:57:16;;;;;;;51.20;21.77;;;2.40;99.90;;;;;;4381559;32;20217;-73
2020/12/16 06:00:02;;;;;;;46.23;20.53;;;2.50;99.90;;;;;;4380648;32;20167;-73
2020/12/16 06:02:40;;;;;;;48.33;20.23;;;2.50;99.90;;;;;;4381634;32;20430;-73
2020/12/16 06:05:12;;;;;;;52.40;20.33;;;2.50;99.90;;;;;;4381406;32;20365;-73
2020/12/16 06:07:48;;;;;;;47.13;19.70;;;2.60;99.90;;;;;;4380675;32;20164;-73
2020/12/16 06:10:15;;;;;;;51.27;21.53;;;2.50;99.90;;;;;;4380477;32;20195;-73
2020/12/16 06:12:43;;;;;;;49.00;20.60;;;2.50;99.90;;;;;;4380098;32;20182;-73
2020/12/16 06:15:15;;;;;;;46.27;20.50;;;2.60;99.90;;;;;;4381709;32;20186;-74
2020/12/16 06:17:47;;;;;;;51.90;21.53;;;2.60;99.90;;;;;;4380382;32;20397;-73
2020/12/16 06:20:18;;;;;;;46.70;20.67;;;2.50;99.90;;;;;;4380134;32;20168;-73
2020/12/16 06:22:47;;;;;;;43.50;19.93;;;2.60;99.90;;;;;;4381027;32;20211;-73
2020/12/16 06:25:16;;;;;;;45.57;20.47;;;2.60;99.90;;;;;;4381555;32;20350;-73
2020/12/16 06:27:48;;;;;;;48.47;20.17;;;2.70;99.90;;;;;;4380027;32;20191;-72
2020/12/16 06:30:29;;;;;;;45.63;19.80;;;2.70;99.90;;;;;;4381537;32;20349;-73
2020/12/16 06:33:15;;;;;;;44.07;19.73;;;2.70;99.90;;;;;;4381489;32;20135;-73
2020/12/16 06:35:42;;;;;;;42.33;19.53;;;2.70;99.90;;;;;;4381599;32;20397;-72
2020/12/16 06:38:21;;;;;;;45.00;19.77;;;2.70;99.90;;;;;;4381434;32;20170;-73
2020/12/16 06:40:50;;;;;;;45.50;19.63;;;2.70;99.90;;;;;;4381532;32;20167;-73
2020/12/16 06:43:32;;;;;;;47.00;19.47;;;2.70;99.90;;;;;;4380163;32;20189;-73
2020/12/16 06:46:00;;;;;;;42.87;19.37;;;2.70;99.90;;;;;;4381480;32;20144;-73
2020/12/16 06:48:33;;;;;;;44.40;20.53;;;2.80;99.90;;;;;;4379925;32;20443;-73
2020/12/16 06:51:16;;;;;;;45.80;19.57;;;2.70;99.90;;;;;;4380008;32;20434;-73
2020/12/16 06:53:46;;;;;;;43.47;19.30;;;2.70;99.90;;;;;;4381261;32;20162;-73
2020/12/16 06:56:26;;;;;;;48.33;20.67;;;2.80;99.90;;;;;;4381382;32;20212;-73
2020/12/16 06:58:52;;;;;;;42.97;19.63;;;2.80;99.90;;;;;;4379674;32;20184;-73
2020/12/16 07:01:18;;;;;;;42.17;19.67;;;2.80;99.90;;;;;;4379811;32;20199;-74
2020/12/16 07:03:45;;;;;;;44.70;19.47;;;2.80;99.90;;;;;;4379671;32;20421;-74
2020/12/16 07:06:31;;;;;;;44.73;19.87;;;2.80;99.90;;;;;;4379681;32;20455;-73
2020/12/16 07:09:20;;;;;;;46.07;19.47;;;2.80;99.90;;;;;;4379740;32;20238;-72
2020/12/16 07:11:51;;;;;;;47.70;21.23;;;2.70;99.90;;;;;;4380982;32;20311;-73
2020/12/16 07:14:20;;;;;;;43.00;18.77;;;2.60;99.90;;;;;;4380105;32;20177;-73
2020/12/16 07:16:47;;;;;;;43.80;19.93;;;2.70;99.90;;;;;;4379495;32;20183;-72
2020/12/16 07:19:26;;;;;;;45.63;20.93;;;2.60;99.90;;;;;;4380541;32;20474;-72
2020/12/16 07:21:52;;;;;;;46.10;19.93;;;2.60;99.90;;;;;;4380250;32;20175;-72
2020/12/16 07:24:19;;;;;;;41.87;19.70;;;2.60;99.90;;;;;;4379254;32;20135;-72
2020/12/16 07:26:53;;;;;;;43.83;19.57;;;2.70;99.90;;;;;;4379193;32;20423;-72
2020/12/16 07:29:32;;;;;;;49.47;20.07;;;2.70;99.90;;;;;;4379267;32;20137;-74
2020/12/16 07:32:06;;;;;;;44.33;19.73;;;2.70;99.90;;;;;;4380876;32;20458;-74
2020/12/16 07:34:43;;;;;;;44.60;21.03;;;2.70;99.90;;;;;;4378671;32;20140;-74
2020/12/16 07:37:10;;;;;;;43.80;19.23;;;2.70;99.90;;;;;;4380791;32;20148;-74
2020/12/16 07:40:15;;;;;;;44.80;19.67;;;2.80;99.90;;;;;;4378944;32;20199;-74
2020/12/16 07:42:41;;;;;;;46.53;19.07;;;2.90;99.90;;;;;;4379176;32;20170;-74
2020/12/16 07:45:10;;;;;;;43.37;19.67;;;3.00;99.90;;;;;;4379390;32;20140;-73
2020/12/16 07:47:40;;;;;;;42.23;19.20;;;2.90;99.90;;;;;;4379713;32;20171;-73
2020/12/16 07:50:10;;;;;;;43.10;19.63;;;2.90;99.90;;;;;;4380425;32;20255;-74
2020/12/16 07:52:36;;;;;;;45.47;19.37;;;2.90;99.90;;;;;;4379508;32;20209;-74
2020/12/16 07:55:03;;;;;;;43.20;18.53;;;2.90;99.90;;;;;;4378266;32;20163;-74
2020/12/16 07:57:32;;;;;;;43.23;18.87;;;3.00;99.90;;;;;;4378871;32;20399;-74
2020/12/16 07:59:59;;;;;;;40.97;18.93;;;2.90;99.90;;;;;;4379174;32;20148;-73
2020/12/16 08:02:26;;;;;;;40.10;18.37;;;2.90;99.90;;;;;;4379862;32;20168;-73
2020/12/16 08:04:58;;;;;;;43.73;18.97;;;2.90;99.90;;;;;;4378880;32;20194;-73
2020/12/16 08:07:25;;;;;;;38.87;17.77;;;3.00;99.90;;;;;;4378877;32;20444;-73
2020/12/16 08:10:00;;;;;;;40.33;18.17;;;3.00;99.90;;;;;;4380698;32;20152;-73
2020/12/16 08:12:29;;;;;;;40.27;17.67;;;3.00;99.90;;;;;;4379486;32;20195;-74
2020/12/16 08:15:11;;;;;;;40.33;17.87;;;2.90;99.90;;;;;;4366237;32;20152;-73
2020/12/16 08:17:42;;;;;;;41.17;18.20;;;3.00;99.90;;;;;;4378480;32;20153;-73
2020/12/16 08:20:18;;;;;;;40.37;17.87;;;3.00;99.90;;;;;;4369716;32;20211;-73
2020/12/16 08:22:47;;;;;;;38.30;17.60;;;3.00;99.90;;;;;;4376990;32;20457;-72
2020/12/16 08:25:15;;;;;;;37.13;17.47;;;3.00;99.90;;;;;;4367961;32;20182;-75
2020/12/16 08:27:44;;;;;;;38.47;17.30;;;2.90;99.90;;;;;;4378414;32;20164;-73
2020/12/16 08:30:15;;;;;;;33.70;16.80;;;3.00;99.90;;;;;;4368650;32;20145;-73
2020/12/16 08:32:52;;;;;;;35.47;16.30;;;3.00;99.90;;;;;;4376957;32;20190;-72
2020/12/16 08:35:21;;;;;;;37.90;16.67;;;3.10;99.90;;;;;;4376667;32;20179;-73
2020/12/16 08:37:53;;;;;;;36.73;16.63;;;3.10;99.90;;;;;;4374273;32;20148;-73
2020/12/16 08:40:21;;;;;;;35.20;16.23;;;3.20;99.90;;;;;;4382843;32;20152;-73
2020/12/16 08:42:48;;;;;;;34.40;15.53;;;3.20;99.90;;;;;;4368979;32;20227;-73
2020/12/16 08:45:18;;;;;;;37.63;15.30;;;3.20;99.90;;;;;;4375900;32;20149;-72
2020/12/16 08:47:45;;;;;;;34.33;15.10;;;3.30;99.90;;;;;;4374140;32;20447;-73
2020/12/16 08:50:14;;;;;;;32.90;14.80;;;3.40;99.90;;;;;;4370625;32;20160;-73
2020/12/16 08:52:48;;;;;;;32.93;14.60;;;3.40;99.90;;;;;;4381095;32;20148;-73
2020/12/16 08:55:21;;;;;;;35.33;15.03;;;3.60;99.90;;;;;;4377477;32;20175;-74
2020/12/16 08:57:52;;;;;;;31.63;14.23;;;3.60;99.90;;;;;;4374450;32;20176;-74
2020/12/16 09:00:18;;;;;;;28.57;13.33;;;3.70;99.90;;;;;;4382378;32;20578;-73
2020/12/16 09:03:06;;;;;;;29.13;14.17;;;3.70;99.90;;;;;;4368582;32;20183;-71
2020/12/16 09:05:36;;;;;;;31.80;13.77;;;3.80;99.90;;;;;;4374879;32;20227;-72
2020/12/16 09:08:14;;;;;;;30.80;13.63;;;3.80;99.90;;;;;;4375674;32;20160;-74
2020/12/16 09:10:55;;;;;;;27.97;13.37;;;3.80;99.90;;;;;;4380726;32;20143;-75
2020/12/16 09:13:22;;;;;;;33.00;14.33;;;3.80;99.90;;;;;;4372105;32;20148;-75
2020/12/16 09:15:49;;;;;;;31.43;13.00;;;3.80;99.90;;;;;;4380963;32;20211;-73
2020/12/16 09:18:25;;;;;;;27.60;13.80;;;3.90;99.90;;;;;;4371236;32;20257;-73
2020/12/16 09:20:52;;;;;;;30.90;13.17;;;3.80;99.90;;;;;;4378200;32;20188;-73
2020/12/16 09:23:27;;;;;;;28.60;13.40;;;3.90;99.90;;;;;;4371128;32;20148;-72
2020/12/16 09:25:55;;;;;;;27.03;13.27;;;4.00;99.90;;;;;;4382205;32;20151;-75
2020/12/16 09:28:40;;;;;;;29.53;13.20;;;3.90;99.90;;;;;;4369119;32;20157;-74
2020/12/16 09:31:20;;;;;;;26.73;13.23;;;4.00;99.90;;;;;;4369456;32;20160;-73
2020/12/16 09:34:07;;;;;;;31.50;13.53;;;4.00;99.90;;;;;;4374128;32;20184;-73
2020/12/16 09:36:33;;;;;;;27.53;13.07;;;4.10;99.90;;;;;;4379210;32;20178;-73
2020/12/16 09:39:03;;;;;;;29.43;13.20;;;4.20;99.90;;;;;;4369966;32;20405;-73
2020/12/16 09:41:41;;;;;;;26.80;12.90;;;4.20;99.90;;;;;;4374421;32;20156;-73
2020/12/16 09:44:25;;;;;;;27.90;13.37;;;4.20;99.90;;;;;;4377383;32;20156;-75
2020/12/16 09:46:51;;;;;;;23.93;12.07;;;4.30;99.90;;;;;;4377078;32;20172;-75
2020/12/16 09:49:19;;;;;;;28.30;13.40;;;4.30;99.90;;;;;;4371913;32;20218;-75
2020/12/16 09:51:46;;;;;;;27.13;13.07;;;4.20;99.90;;;;;;4381858;32;20204;-74
2020/12/16 09:54:32;;;;;;;28.23;13.50;;;4.10;99.90;;;;;;4369728;32;20156;-74
2020/12/16 09:57:06;;;;;;;26.47;12.70;;;4.20;99.90;;;;;;4369621;32;20203;-74
2020/12/16 09:59:33;;;;;;;28.10;13.13;;;4.30;99.90;;;;;;4373615;32;20175;-73
2020/12/16 10:02:00;;;;;;;29.63;13.33;;;4.30;99.90;;;;;;4374645;32;20208;-74
2020/12/16 10:04:27;;;;;;;29.77;12.80;;;4.30;99.90;;;;;;4381710;32;20204;-73
2020/12/16 10:06:53;;;;;;;26.73;13.00;;;4.30;99.90;;;;;;4367754;32;20356;-73
2020/12/16 10:09:20;;;;;;;27.97;13.07;;;4.30;99.90;;;;;;4380550;32;20212;-73
2020/12/16 10:11:48;;;;;;;29.27;13.60;;;4.50;99.90;;;;;;4373265;32;20180;-74
2020/12/16 10:14:17;;;;;;;32.17;13.10;;;4.50;99.90;;;;;;4375772;32;20180;-74
2020/12/16 10:16:47;;;;;;;29.57;13.50;;;4.60;99.90;;;;;;4378517;32;20438;-74
2020/12/16 10:19:16;;;;;;;30.03;13.57;;;4.70;99.90;;;;;;4369103;32;20420;-72
2020/12/16 10:21:47;;;;;;;27.13;13.27;;;4.70;99.90;;;;;;4381365;32;20194;-73
2020/12/16 10:24:16;;;;;;;26.53;13.03;;;4.80;99.90;;;;;;4369316;32;20171;-71
2020/12/16 10:26:49;;;;;;;27.47;12.77;;;4.90;99.90;;;;;;4378572;32;20472;-73
2020/12/16 10:29:16;;;;;;;29.73;14.03;;;4.90;99.90;;;;;;4375139;32;20152;-74
2020/12/16 10:31:49;;;;;;;28.73;13.90;;;4.80;99.90;;;;;;4344957;32;20221;-73
2020/12/16 10:34:17;;;;;;;27.03;12.80;;;4.80;99.90;;;;;;4372465;32;20225;-73
2020/12/16 10:36:48;;;;;;;31.50;14.43;;;4.80;99.90;;;;;;4367111;32;20186;-73
2020/12/16 10:39:14;;;;;;;26.37;12.77;;;4.70;99.90;;;;;;4372731;32;20228;-73
2020/12/16 10:41:43;;;;;;;27.70;13.60;;;4.70;99.90;;;;;;4371326;32;20164;-73
2020/12/16 10:44:10;;;;;;;28.73;13.90;;;4.70;99.90;;;;;;4381158;32;20483;-73
2020/12/16 10:46:36;;;;;;;29.50;13.03;;;4.60;99.90;;;;;;4368543;32;20235;-74
2020/12/16 10:49:03;;;;;;;27.37;13.53;;;4.60;99.90;;;;;;4376133;32;20230;-74
2020/12/16 10:51:29;;;;;;;30.40;13.97;;;4.60;99.90;;;;;;4370106;32;20152;-75
2020/12/16 10:53:56;;;;;;;28.83;13.77;;;4.80;99.90;;;;;;4375015;32;20152;-75
2020/12/16 10:56:22;;;;;;;34.43;15.40;;;4.80;99.90;;;;;;4381812;32;20144;-73
2020/12/16 10:58:49;;;;;;;31.07;15.20;;;4.70;99.90;;;;;;4370825;32;20219;-74
2020/12/16 11:01:16;;;;;;;32.57;15.47;;;4.80;99.90;;;;;;4374358;32;20164;-73
2020/12/16 11:03:43;;;;;;;36.73;16.20;;;4.90;99.90;;;;;;4371949;32;20150;-73
2020/12/16 11:06:12;;;;;;;33.90;15.43;;;4.90;99.90;;;;;;4374874;32;20160;-74
2020/12/16 11:08:39;;;;;;;32.47;15.50;;;4.70;99.90;;;;;;4379016;32;20145;-74
2020/12/16 11:11:05;;;;;;;34.07;15.20;;;4.80;99.90;;;;;;4376948;32;20206;-74
2020/12/16 11:13:32;;;;;;;32.83;15.93;;;4.90;99.90;;;;;;4370562;32;20168;-74
2020/12/16 11:15:58;;;;;;;38.10;15.53;;;4.80;99.90;;;;;;4380986;32;20474;-72
2020/12/16 11:18:25;;;;;;;34.97;16.30;;;4.80;99.90;;;;;;4367194;32;20149;-73
2020/12/16 11:20:52;;;;;;;32.23;15.27;;;4.90;99.90;;;;;;4377281;32;20138;-73
2020/12/16 11:23:18;;;;;;;35.97;16.27;;;4.90;99.90;;;;;;4369299;32;20166;-74
2020/12/16 11:25:44;;;;;;;37.83;16.30;;;5.00;99.90;;;;;;4379097;32;20199;-73
2020/12/16 11:28:11;;;;;;;37.23;16.30;;;5.10;99.90;;;;;;4370088;32;20148;-73
2020/12/16 11:30:37;;;;;;;36.93;15.70;;;5.20;99.90;;;;;;4376223;32;20149;-73
2020/12/16 11:33:04;;;;;;;31.87;15.40;;;5.10;99.90;;;;;;4367287;32;20156;-73
2020/12/16 11:35:30;;;;;;;37.87;17.00;;;5.20;99.90;;;;;;4372508;32;20198;-73
2020/12/16 11:37:56;;;;;;;37.07;16.37;;;5.20;99.90;;;;;;4368587;32;20241;-73
2020/12/16 11:40:23;;;;;;;36.30;17.27;;;5.20;99.90;;;;;;4371965;32;20160;-73
2020/12/16 11:42:49;;;;;;;40.87;17.53;;;5.00;99.90;;;;;;4373717;32;20185;-72
2020/12/16 11:45:16;;;;;;;41.97;16.93;;;5.10;99.90;;;;;;4369650;32;20145;-71
2020/12/16 11:47:42;;;;;;;37.27;16.17;;;5.00;99.90;;;;;;4372106;32;20175;-72
2020/12/16 11:50:10;;;;;;;40.80;18.13;;;5.10;99.90;;;;;;4369916;32;20467;-73
2020/12/16 11:52:37;;;;;;;38.57;16.73;;;5.10;99.90;;;;;;4378130;32;20476;-73
2020/12/16 11:55:04;;;;;;;40.27;17.53;;;5.20;99.90;;;;;;4376133;32;20164;-74
2020/12/16 11:57:32;;;;;;;39.43;17.80;;;5.30;99.90;;;;;;4378811;32;20164;-74
2020/12/16 11:59:58;;;;;;;42.23;17.20;;;5.20;99.90;;;;;;4362627;32;20164;-73
2020/12/16 12:02:25;;;;;;;40.50;16.53;;;5.40;99.90;;;;;;4365665;32;20263;-72
2020/12/16 12:04:52;;;;;;;40.90;18.03;;;5.40;99.90;;;;;;4375532;32;20639;-72
2020/12/16 12:07:19;;;;;;;41.93;17.37;;;5.40;99.90;;;;;;4372009;32;20152;-72
2020/12/16 12:09:45;;;;;;;40.90;17.80;;;5.30;99.90;;;;;;4369728;32;20459;-72
2020/12/16 12:12:12;;;;;;;42.33;18.63;;;5.30;99.90;;;;;;4367679;32;20149;-73
2020/12/16 12:14:38;;;;;;;43.93;18.50;;;5.30;99.90;;;;;;4376884;32;20156;-73
2020/12/16 12:17:05;;;;;;;45.07;18.90;;;5.30;99.90;;;;;;4374987;32;20157;-72
2020/12/16 12:19:33;;;;;;;40.93;18.27;;;5.30;99.90;;;;;;4370023;32;20510;-72
2020/12/16 12:22:00;;;;;;;47.03;19.17;;;5.30;99.90;;;;;;4378080;32;20240;-73
2020/12/16 12:24:26;;;;;;;45.93;19.07;;;5.50;99.90;;;;;;4388307;32;20203;-73
2020/12/16 12:26:53;;;;;;;50.27;20.57;;;5.50;99.90;;;;;;4364073;32;20207;-73
2020/12/16 12:29:19;;;;;;;45.93;19.17;;;5.40;99.90;;;;;;4369773;32;20172;-72
2020/12/16 12:31:46;;;;;;;48.07;19.97;;;5.30;99.90;;;;;;4373667;32;20149;-71
2020/12/16 12:34:12;;;;;;;48.23;20.37;;;5.30;99.90;;;;;;4367944;32;20175;-72
2020/12/16 12:36:40;;;;;;;47.93;19.77;;;5.30;99.90;;;;;;4375654;32;20278;-72
2020/12/16 12:39:07;;;;;;;50.80;20.30;;;5.40;99.90;;;;;;4369385;32;20242;-72
2020/12/16 12:41:33;;;;;;;50.80;20.47;;;5.40;99.90;;;;;;4371637;32;20248;-73
2020/12/16 12:44:00;;;;;;;50.07;20.47;;;5.40;99.90;;;;;;4372627;32;20152;-74
2020/12/16 12:46:26;;;;;;;46.87;19.60;;;5.50;99.90;;;;;;4375167;32;20212;-73
2020/12/16 12:48:53;;;;;;;51.43;21.03;;;5.60;99.90;;;;;;4376225;32;20180;-73